sensor_id;sensor_type;location;lat;lon;timestamp;P1;durP1;ratioP1;P2;durP2;ratioP2
6983;SDS011;3532;51.118;7.210;2023-05-14T00:01:48;7.97;;;4.80;;
6983;SDS011;3532;51.118;7.210;2023-05-14T00:04:15;7.30;;;5.17;;
6983;SDS011;3532;51.118;7.210;2023-05-14T00:06:41;6.90;;;4.23;;
6983;SDS011;3532;51.118;7.210;2023-05-14T00:09:07;6.03;;;5.17;;
6983;SDS011;3532;51.118;7.210;2023-05-14T00:11:32;8.57;;;6.20;;
6983;SDS011;3532;51.118;7.210;2023-05-14T00:13:57;6.93;;;5.90;;
6983;SDS011;3532;51.118;7.210;2023-05-14T00:16:23;6.93;;;5.60;;
6983;SDS011;3532;51.118;7.210;2023-05-14T00:18:48;6.23;;;5.60;;
6983;SDS011;3532;51.118;7.210;2023-05-14T00:21:13;6.30;;;5.33;;
6983;SDS011;3532;51.118;7.210;2023-05-14T00:23:39;5.80;;;5.20;;
6983;SDS011;3532;51.118;7.210;2023-05-14T00:26:04;5.53;;;5.13;;
6983;SDS011;3532;51.118;7.210;2023-05-14T00:28:29;5.87;;;5.37;;
6983;SDS011;3532;51.118;7.210;2023-05-14T00:30:55;6.00;;;5.50;;
6983;SDS011;3532;51.118;7.210;2023-05-14T00:33:21;6.47;;;5.70;;
6983;SDS011;3532;51.118;7.210;2023-05-14T00:35:46;7.60;;;5.20;;
6983;SDS011;3532;51.118;7.210;2023-05-14T00:38:11;5.27;;;4.87;;
6983;SDS011;3532;51.118;7.210;2023-05-14T00:40:41;5.93;;;5.40;;
6983;SDS011;3532;51.118;7.210;2023-05-14T00:43:09;6.57;;;5.93;;
6983;SDS011;3532;51.118;7.210;2023-05-14T00:45:35;5.10;;;4.63;;
6983;SDS011;3532;51.118;7.210;2023-05-14T00:48:00;5.30;;;4.80;;
6983;SDS011;3532;51.118;7.210;2023-05-14T00:50:25;7.63;;;5.50;;
6983;SDS011;3532;51.118;7.210;2023-05-14T00:52:51;6.10;;;5.50;;
6983;SDS011;3532;51.118;7.210;2023-05-14T00:55:17;7.93;;;5.70;;
6983;SDS011;3532;51.118;7.210;2023-05-14T00:57:43;7.30;;;6.03;;
6983;SDS011;3532;51.118;7.210;2023-05-14T01:00:08;6.63;;;5.93;;
6983;SDS011;3532;51.118;7.210;2023-05-14T01:02:34;5.97;;;5.47;;
6983;SDS011;3532;51.118;7.210;2023-05-14T01:04:59;5.70;;;5.20;;
6983;SDS011;3532;51.118;7.210;2023-05-14T01:10:10;5.87;;;5.27;;
6983;SDS011;3532;51.118;7.210;2023-05-14T01:12:46;6.40;;;5.70;;
6983;SDS011;3532;51.118;7.210;2023-05-14T01:15:27;5.80;;;5.30;;
6983;SDS011;3532;51.118;7.210;2023-05-14T01:17:59;6.03;;;5.53;;
6983;SDS011;3532;51.118;7.210;2023-05-14T01:20:27;7.10;;;5.63;;
6983;SDS011;3532;51.118;7.210;2023-05-14T01:22:53;7.20;;;6.40;;
6983;SDS011;3532;51.118;7.210;2023-05-14T01:25:18;6.90;;;6.13;;
6983;SDS011;3532;51.118;7.210;2023-05-14T01:30:33;7.53;;;5.13;;
6983;SDS011;3532;51.118;7.210;2023-05-14T01:33:01;9.23;;;6.83;;
6983;SDS011;3532;51.118;7.210;2023-05-14T01:35:30;7.17;;;5.80;;
6983;SDS011;3532;51.118;7.210;2023-05-14T01:37:57;7.00;;;5.80;;
6983;SDS011;3532;51.118;7.210;2023-05-14T01:40:24;8.00;;;6.37;;
6983;SDS011;3532;51.118;7.210;2023-05-14T01:42:50;6.90;;;6.30;;
6983;SDS011;3532;51.118;7.210;2023-05-14T01:45:21;7.00;;;6.40;;
6983;SDS011;3532;51.118;7.210;2023-05-14T01:47:47;5.87;;;5.33;;
6983;SDS011;3532;51.118;7.210;2023-05-14T01:50:12;6.73;;;6.10;;
6983;SDS011;3532;51.118;7.210;2023-05-14T01:52:38;7.30;;;6.37;;
6983;SDS011;3532;51.118;7.210;2023-05-14T01:55:03;6.07;;;5.53;;
6983;SDS011;3532;51.118;7.210;2023-05-14T01:57:29;6.93;;;6.07;;
6983;SDS011;3532;51.118;7.210;2023-05-14T01:59:54;6.37;;;5.77;;
6983;SDS011;3532;51.118;7.210;2023-05-14T02:02:20;7.33;;;5.90;;
6983;SDS011;3532;51.118;7.210;2023-05-14T02:04:45;7.03;;;5.50;;
6983;SDS011;3532;51.118;7.210;2023-05-14T02:07:10;6.20;;;5.70;;
6983;SDS011;3532;51.118;7.210;2023-05-14T02:09:36;8.00;;;6.87;;
6983;SDS011;3532;51.118;7.210;2023-05-14T02:12:01;9.03;;;7.23;;
6983;SDS011;3532;51.118;7.210;2023-05-14T02:14:26;7.37;;;6.77;;
6983;SDS011;3532;51.118;7.210;2023-05-14T02:16:52;6.70;;;6.10;;
6983;SDS011;3532;51.118;7.210;2023-05-14T02:19:17;6.23;;;5.63;;
6983;SDS011;3532;51.118;7.210;2023-05-14T02:21:42;6.20;;;5.70;;
6983;SDS011;3532;51.118;7.210;2023-05-14T02:24:07;6.80;;;6.20;;
6983;SDS011;3532;51.118;7.210;2023-05-14T02:26:33;8.50;;;6.80;;
6983;SDS011;3532;51.118;7.210;2023-05-14T02:28:58;8.30;;;7.50;;
6983;SDS011;3532;51.118;7.210;2023-05-14T02:31:23;7.90;;;7.10;;
6983;SDS011;3532;51.118;7.210;2023-05-14T02:33:49;8.60;;;7.67;;
6983;SDS011;3532;51.118;7.210;2023-05-14T02:36:14;7.53;;;6.83;;
6983;SDS011;3532;51.118;7.210;2023-05-14T02:38:39;7.30;;;6.60;;
6983;SDS011;3532;51.118;7.210;2023-05-14T02:41:05;8.67;;;7.83;;
6983;SDS011;3532;51.118;7.210;2023-05-14T02:43:30;7.90;;;7.07;;
6983;SDS011;3532;51.118;7.210;2023-05-14T02:45:56;6.97;;;6.37;;
6983;SDS011;3532;51.118;7.210;2023-05-14T02:48:21;7.40;;;6.47;;
6983;SDS011;3532;51.118;7.210;2023-05-14T02:50:48;7.13;;;6.43;;
6983;SDS011;3532;51.118;7.210;2023-05-14T02:53:13;7.23;;;6.20;;
6983;SDS011;3532;51.118;7.210;2023-05-14T02:55:39;6.17;;;5.57;;
6983;SDS011;3532;51.118;7.210;2023-05-14T02:58:05;7.03;;;6.30;;
6983;SDS011;3532;51.118;7.210;2023-05-14T03:00:30;7.20;;;6.60;;
6983;SDS011;3532;51.118;7.210;2023-05-14T03:02:55;7.73;;;6.93;;
6983;SDS011;3532;51.118;7.210;2023-05-14T03:05:21;7.97;;;6.40;;
6983;SDS011;3532;51.118;7.210;2023-05-14T03:07:46;7.83;;;6.87;;
6983;SDS011;3532;51.118;7.210;2023-05-14T03:10:11;7.80;;;7.10;;
6983;SDS011;3532;51.118;7.210;2023-05-14T03:12:37;8.90;;;7.40;;
6983;SDS011;3532;51.118;7.210;2023-05-14T03:15:02;8.40;;;6.30;;
6983;SDS011;3532;51.118;7.210;2023-05-14T03:17:27;7.57;;;6.47;;
6983;SDS011;3532;51.118;7.210;2023-05-14T03:19:53;8.13;;;6.60;;
6983;SDS011;3532;51.118;7.210;2023-05-14T03:22:18;8.40;;;7.03;;
6983;SDS011;3532;51.118;7.210;2023-05-14T03:24:43;8.20;;;7.47;;
6983;SDS011;3532;51.118;7.210;2023-05-14T03:27:09;9.37;;;7.27;;
6983;SDS011;3532;51.118;7.210;2023-05-14T03:29:34;7.67;;;6.87;;
6983;SDS011;3532;51.118;7.210;2023-05-14T03:31:59;8.13;;;6.90;;
6983;SDS011;3532;51.118;7.210;2023-05-14T03:34:25;7.77;;;7.07;;
6983;SDS011;3532;51.118;7.210;2023-05-14T03:36:50;8.23;;;6.60;;
6983;SDS011;3532;51.118;7.210;2023-05-14T03:39:16;9.50;;;6.77;;
6983;SDS011;3532;51.118;7.210;2023-05-14T03:41:45;8.00;;;7.20;;
6983;SDS011;3532;51.118;7.210;2023-05-14T03:44:10;7.97;;;7.17;;
6983;SDS011;3532;51.118;7.210;2023-05-14T03:46:36;9.00;;;6.70;;
6983;SDS011;3532;51.118;7.210;2023-05-14T03:49:01;7.83;;;7.13;;
6983;SDS011;3532;51.118;7.210;2023-05-14T03:51:27;7.07;;;6.40;;
6983;SDS011;3532;51.118;7.210;2023-05-14T03:53:52;7.00;;;6.10;;
6983;SDS011;3532;51.118;7.210;2023-05-14T03:56:17;7.30;;;6.60;;
6983;SDS011;3532;51.118;7.210;2023-05-14T03:58:43;7.80;;;6.70;;
6983;SDS011;3532;51.118;7.210;2023-05-14T04:01:08;7.07;;;6.37;;
6983;SDS011;3532;51.118;7.210;2023-05-14T04:03:33;6.67;;;6.07;;
6983;SDS011;3532;51.118;7.210;2023-05-14T04:05:59;7.27;;;6.60;;
6983;SDS011;3532;51.118;7.210;2023-05-14T04:08:24;7.07;;;6.40;;
6983;SDS011;3532;51.118;7.210;2023-05-14T04:10:49;7.03;;;6.30;;
6983;SDS011;3532;51.118;7.210;2023-05-14T04:13:15;7.10;;;6.17;;
6983;SDS011;3532;51.118;7.210;2023-05-14T04:15:40;8.73;;;6.80;;
6983;SDS011;3532;51.118;7.210;2023-05-14T04:18:06;7.10;;;6.50;;
6983;SDS011;3532;51.118;7.210;2023-05-14T04:20:31;7.40;;;6.70;;
6983;SDS011;3532;51.118;7.210;2023-05-14T04:22:56;7.57;;;6.87;;
6983;SDS011;3532;51.118;7.210;2023-05-14T04:25:22;8.77;;;6.10;;
6983;SDS011;3532;51.118;7.210;2023-05-14T04:27:48;6.70;;;6.10;;
6983;SDS011;3532;51.118;7.210;2023-05-14T04:30:13;6.87;;;6.10;;
6983;SDS011;3532;51.118;7.210;2023-05-14T04:32:38;6.43;;;5.83;;
6983;SDS011;3532;51.118;7.210;2023-05-14T04:35:04;6.03;;;5.53;;
6983;SDS011;3532;51.118;7.210;2023-05-14T04:37:30;7.37;;;6.43;;
6983;SDS011;3532;51.118;7.210;2023-05-14T04:39:56;7.00;;;6.30;;
6983;SDS011;3532;51.118;7.210;2023-05-14T04:42:22;7.37;;;6.67;;
6983;SDS011;3532;51.118;7.210;2023-05-14T04:44:47;7.43;;;6.83;;
6983;SDS011;3532;51.118;7.210;2023-05-14T04:47:13;7.10;;;6.50;;
6983;SDS011;3532;51.118;7.210;2023-05-14T04:49:38;6.53;;;5.93;;
6983;SDS011;3532;51.118;7.210;2023-05-14T04:52:03;6.60;;;6.00;;
6983;SDS011;3532;51.118;7.210;2023-05-14T04:54:30;6.30;;;5.70;;
6983;SDS011;3532;51.118;7.210;2023-05-14T04:56:55;7.57;;;6.73;;
6983;SDS011;3532;51.118;7.210;2023-05-14T04:59:20;8.07;;;6.67;;
6983;SDS011;3532;51.118;7.210;2023-05-14T05:01:46;7.07;;;6.17;;
6983;SDS011;3532;51.118;7.210;2023-05-14T05:04:11;7.77;;;6.93;;
6983;SDS011;3532;51.118;7.210;2023-05-14T05:06:37;6.90;;;6.30;;
6983;SDS011;3532;51.118;7.210;2023-05-14T05:09:02;8.57;;;7.77;;
6983;SDS011;3532;51.118;7.210;2023-05-14T05:11:28;7.67;;;6.87;;
6983;SDS011;3532;51.118;7.210;2023-05-14T05:13:53;7.13;;;6.43;;
6983;SDS011;3532;51.118;7.210;2023-05-14T05:16:19;7.27;;;6.27;;
6983;SDS011;3532;51.118;7.210;2023-05-14T05:18:44;6.87;;;6.13;;
6983;SDS011;3532;51.118;7.210;2023-05-14T05:21:09;7.23;;;6.50;;
6983;SDS011;3532;51.118;7.210;2023-05-14T05:23:35;8.07;;;5.73;;
6983;SDS011;3532;51.118;7.210;2023-05-14T05:26:00;6.73;;;6.10;;
6983;SDS011;3532;51.118;7.210;2023-05-14T05:28:25;6.20;;;5.70;;
6983;SDS011;3532;51.118;7.210;2023-05-14T05:30:50;6.27;;;5.77;;
6983;SDS011;3532;51.118;7.210;2023-05-14T05:33:16;6.60;;;6.10;;
6983;SDS011;3532;51.118;7.210;2023-05-14T05:35:41;7.83;;;7.13;;
6983;SDS011;3532;51.118;7.210;2023-05-14T05:38:08;10.40;;;6.50;;
6983;SDS011;3532;51.118;7.210;2023-05-14T05:40:33;7.43;;;5.83;;
6983;SDS011;3532;51.118;7.210;2023-05-14T05:42:59;7.80;;;6.53;;
6983;SDS011;3532;51.118;7.210;2023-05-14T05:45:24;7.50;;;6.83;;
6983;SDS011;3532;51.118;7.210;2023-05-14T05:47:49;6.63;;;5.93;;
6983;SDS011;3532;51.118;7.210;2023-05-14T05:50:14;6.10;;;5.60;;
6983;SDS011;3532;51.118;7.210;2023-05-14T05:52:40;6.70;;;6.10;;
6983;SDS011;3532;51.118;7.210;2023-05-14T05:55:05;5.50;;;5.00;;
6983;SDS011;3532;51.118;7.210;2023-05-14T05:57:31;7.50;;;5.43;;
6983;SDS011;3532;51.118;7.210;2023-05-14T05:59:56;5.90;;;5.50;;
6983;SDS011;3532;51.118;7.210;2023-05-14T06:02:22;5.87;;;5.37;;
6983;SDS011;3532;51.118;7.210;2023-05-14T06:04:49;6.37;;;5.63;;
6983;SDS011;3532;51.118;7.210;2023-05-14T06:07:15;6.30;;;5.70;;
6983;SDS011;3532;51.118;7.210;2023-05-14T06:09:40;6.00;;;5.43;;
6983;SDS011;3532;51.118;7.210;2023-05-14T06:12:06;5.93;;;5.43;;
6983;SDS011;3532;51.118;7.210;2023-05-14T06:14:31;7.43;;;5.00;;
6983;SDS011;3532;51.118;7.210;2023-05-14T06:16:56;6.07;;;5.57;;
6983;SDS011;3532;51.118;7.210;2023-05-14T06:19:22;8.00;;;5.90;;
6983;SDS011;3532;51.118;7.210;2023-05-14T06:21:48;6.37;;;5.87;;
6983;SDS011;3532;51.118;7.210;2023-05-14T06:24:13;6.33;;;5.73;;
6983;SDS011;3532;51.118;7.210;2023-05-14T06:26:38;5.83;;;5.33;;
6983;SDS011;3532;51.118;7.210;2023-05-14T06:29:03;6.40;;;5.47;;
6983;SDS011;3532;51.118;7.210;2023-05-14T06:31:29;5.33;;;4.83;;
6983;SDS011;3532;51.118;7.210;2023-05-14T06:33:54;4.97;;;4.57;;
6983;SDS011;3532;51.118;7.210;2023-05-14T06:36:19;5.17;;;4.73;;
6983;SDS011;3532;51.118;7.210;2023-05-14T06:38:45;5.87;;;5.23;;
6983;SDS011;3532;51.118;7.210;2023-05-14T06:41:10;6.87;;;5.47;;
6983;SDS011;3532;51.118;7.210;2023-05-14T06:43:36;6.17;;;5.20;;
6983;SDS011;3532;51.118;7.210;2023-05-14T06:46:01;5.63;;;5.00;;
6983;SDS011;3532;51.118;7.210;2023-05-14T06:48:26;4.70;;;4.30;;
6983;SDS011;3532;51.118;7.210;2023-05-14T06:50:53;5.00;;;4.50;;
6983;SDS011;3532;51.118;7.210;2023-05-14T06:53:18;5.40;;;4.80;;
6983;SDS011;3532;51.118;7.210;2023-05-14T06:55:45;5.87;;;5.37;;
6983;SDS011;3532;51.118;7.210;2023-05-14T06:58:11;5.20;;;4.80;;
6983;SDS011;3532;51.118;7.210;2023-05-14T07:00:36;5.40;;;4.80;;
6983;SDS011;3532;51.118;7.210;2023-05-14T07:03:02;6.27;;;5.30;;
6983;SDS011;3532;51.118;7.210;2023-05-14T07:05:27;4.73;;;4.43;;
6983;SDS011;3532;51.118;7.210;2023-05-14T07:07:53;5.37;;;4.93;;
6983;SDS011;3532;51.118;7.210;2023-05-14T07:10:18;4.83;;;4.47;;
6983;SDS011;3532;51.118;7.210;2023-05-14T07:12:43;5.20;;;4.73;;
6983;SDS011;3532;51.118;7.210;2023-05-14T07:15:09;5.43;;;4.40;;
6983;SDS011;3532;51.118;7.210;2023-05-14T07:17:36;4.73;;;4.07;;
6983;SDS011;3532;51.118;7.210;2023-05-14T07:20:01;4.33;;;3.93;;
6983;SDS011;3532;51.118;7.210;2023-05-14T07:22:27;5.83;;;4.43;;
6983;SDS011;3532;51.118;7.210;2023-05-14T07:24:52;5.27;;;4.77;;
6983;SDS011;3532;51.118;7.210;2023-05-14T07:27:17;5.37;;;4.80;;
6983;SDS011;3532;51.118;7.210;2023-05-14T07:29:43;4.50;;;4.20;;
6983;SDS011;3532;51.118;7.210;2023-05-14T07:32:08;4.87;;;4.47;;
6983;SDS011;3532;51.118;7.210;2023-05-14T07:34:33;5.10;;;4.60;;
6983;SDS011;3532;51.118;7.210;2023-05-14T07:36:59;4.40;;;4.10;;
6983;SDS011;3532;51.118;7.210;2023-05-14T07:39:24;5.13;;;4.63;;
6983;SDS011;3532;51.118;7.210;2023-05-14T07:41:49;4.90;;;4.00;;
6983;SDS011;3532;51.118;7.210;2023-05-14T07:44:15;4.70;;;4.30;;
6983;SDS011;3532;51.118;7.210;2023-05-14T07:46:40;4.37;;;3.97;;
6983;SDS011;3532;51.118;7.210;2023-05-14T07:49:06;3.60;;;3.30;;
6983;SDS011;3532;51.118;7.210;2023-05-14T07:51:31;3.37;;;3.10;;
6983;SDS011;3532;51.118;7.210;2023-05-14T07:53:57;3.20;;;3.00;;
6983;SDS011;3532;51.118;7.210;2023-05-14T07:56:22;3.30;;;3.07;;
6983;SDS011;3532;51.118;7.210;2023-05-14T07:58:48;3.77;;;3.33;;
6983;SDS011;3532;51.118;7.210;2023-05-14T08:01:14;3.03;;;2.83;;
6983;SDS011;3532;51.118;7.210;2023-05-14T08:03:39;3.30;;;3.00;;
6983;SDS011;3532;51.118;7.210;2023-05-14T08:06:05;3.43;;;2.67;;
6983;SDS011;3532;51.118;7.210;2023-05-14T08:08:30;3.13;;;2.87;;
6983;SDS011;3532;51.118;7.210;2023-05-14T08:10:55;4.60;;;3.03;;
6983;SDS011;3532;51.118;7.210;2023-05-14T08:13:21;2.60;;;2.40;;
6983;SDS011;3532;51.118;7.210;2023-05-14T08:15:46;3.67;;;2.90;;
6983;SDS011;3532;51.118;7.210;2023-05-14T08:18:11;3.40;;;2.53;;
6983;SDS011;3532;51.118;7.210;2023-05-14T08:20:37;2.53;;;2.33;;
6983;SDS011;3532;51.118;7.210;2023-05-14T08:23:02;3.27;;;3.00;;
6983;SDS011;3532;51.118;7.210;2023-05-14T08:25:27;3.40;;;3.10;;
6983;SDS011;3532;51.118;7.210;2023-05-14T08:27:53;2.70;;;2.50;;
6983;SDS011;3532;51.118;7.210;2023-05-14T08:30:18;3.90;;;3.10;;
6983;SDS011;3532;51.118;7.210;2023-05-14T08:32:44;2.73;;;2.50;;
6983;SDS011;3532;51.118;7.210;2023-05-14T08:35:09;3.07;;;2.80;;
6983;SDS011;3532;51.118;7.210;2023-05-14T08:37:35;3.20;;;2.90;;
6983;SDS011;3532;51.118;7.210;2023-05-14T08:40:00;3.17;;;2.80;;
6983;SDS011;3532;51.118;7.210;2023-05-14T08:42:25;3.30;;;3.00;;
6983;SDS011;3532;51.118;7.210;2023-05-14T08:44:56;2.93;;;2.73;;
6983;SDS011;3532;51.118;7.210;2023-05-14T08:47:24;3.33;;;2.73;;
6983;SDS011;3532;51.118;7.210;2023-05-14T08:50:05;3.13;;;2.87;;
6983;SDS011;3532;51.118;7.210;2023-05-14T08:52:32;3.37;;;3.07;;
6983;SDS011;3532;51.118;7.210;2023-05-14T08:54:59;3.50;;;2.70;;
6983;SDS011;3532;51.118;7.210;2023-05-14T08:57:25;3.03;;;2.67;;
6983;SDS011;3532;51.118;7.210;2023-05-14T08:59:52;2.83;;;2.53;;
6983;SDS011;3532;51.118;7.210;2023-05-14T09:02:19;3.17;;;2.63;;
6983;SDS011;3532;51.118;7.210;2023-05-14T09:04:47;4.17;;;2.90;;
6983;SDS011;3532;51.118;7.210;2023-05-14T09:07:14;3.23;;;2.60;;
6983;SDS011;3532;51.118;7.210;2023-05-14T09:09:40;8.03;;;3.00;;
6983;SDS011;3532;51.118;7.210;2023-05-14T09:12:05;4.27;;;2.80;;
6983;SDS011;3532;51.118;7.210;2023-05-14T09:14:31;4.07;;;3.07;;
6983;SDS011;3532;51.118;7.210;2023-05-14T09:16:57;3.50;;;2.87;;
6983;SDS011;3532;51.118;7.210;2023-05-14T09:19:23;3.30;;;2.57;;
6983;SDS011;3532;51.118;7.210;2023-05-14T09:21:48;2.90;;;2.60;;
6983;SDS011;3532;51.118;7.210;2023-05-14T09:24:17;4.20;;;2.50;;
6983;SDS011;3532;51.118;7.210;2023-05-14T09:26:44;2.50;;;2.30;;
6983;SDS011;3532;51.118;7.210;2023-05-14T09:29:13;3.20;;;2.90;;
6983;SDS011;3532;51.118;7.210;2023-05-14T09:31:39;3.33;;;3.03;;
6983;SDS011;3532;51.118;7.210;2023-05-14T09:34:04;4.03;;;2.70;;
6983;SDS011;3532;51.118;7.210;2023-05-14T09:36:30;2.80;;;2.50;;
6983;SDS011;3532;51.118;7.210;2023-05-14T09:38:58;2.57;;;2.37;;
6983;SDS011;3532;51.118;7.210;2023-05-14T09:41:24;5.17;;;4.47;;
6983;SDS011;3532;51.118;7.210;2023-05-14T09:43:50;5.20;;;4.70;;
6983;SDS011;3532;51.118;7.210;2023-05-14T09:46:16;6.33;;;5.73;;
6983;SDS011;3532;51.118;7.210;2023-05-14T09:48:41;5.70;;;5.20;;
6983;SDS011;3532;51.118;7.210;2023-05-14T09:51:08;5.63;;;5.20;;
6983;SDS011;3532;51.118;7.210;2023-05-14T09:53:33;4.73;;;4.27;;
6983;SDS011;3532;51.118;7.210;2023-05-14T09:55:59;6.20;;;4.77;;
6983;SDS011;3532;51.118;7.210;2023-05-14T09:58:25;6.33;;;5.77;;
6983;SDS011;3532;51.118;7.210;2023-05-14T10:00:50;5.87;;;5.03;;
6983;SDS011;3532;51.118;7.210;2023-05-14T10:03:16;6.60;;;4.97;;
6983;SDS011;3532;51.118;7.210;2023-05-14T10:05:42;5.67;;;5.17;;
6983;SDS011;3532;51.118;7.210;2023-05-14T10:08:11;10.30;;;5.87;;
6983;SDS011;3532;51.118;7.210;2023-05-14T10:10:38;5.83;;;5.33;;
6983;SDS011;3532;51.118;7.210;2023-05-14T10:13:03;5.57;;;4.97;;
6983;SDS011;3532;51.118;7.210;2023-05-14T10:18:30;6.43;;;5.70;;
6983;SDS011;3532;51.118;7.210;2023-05-14T10:21:05;6.20;;;5.60;;
6983;SDS011;3532;51.118;7.210;2023-05-14T10:23:31;6.30;;;5.40;;
6983;SDS011;3532;51.118;7.210;2023-05-14T10:25:57;5.23;;;4.83;;
6983;SDS011;3532;51.118;7.210;2023-05-14T10:28:23;7.83;;;4.80;;
6983;SDS011;3532;51.118;7.210;2023-05-14T10:30:49;5.50;;;5.00;;
6983;SDS011;3532;51.118;7.210;2023-05-14T10:33:15;6.13;;;4.90;;
6983;SDS011;3532;51.118;7.210;2023-05-14T10:35:54;5.80;;;5.30;;
6983;SDS011;3532;51.118;7.210;2023-05-14T10:38:26;6.50;;;5.90;;
6983;SDS011;3532;51.118;7.210;2023-05-14T10:40:56;6.27;;;5.73;;
6983;SDS011;3532;51.118;7.210;2023-05-14T10:43:24;6.03;;;5.53;;
6983;SDS011;3532;51.118;7.210;2023-05-14T10:45:51;5.67;;;5.00;;
6983;SDS011;3532;51.118;7.210;2023-05-14T10:48:16;5.00;;;4.53;;
6983;SDS011;3532;51.118;7.210;2023-05-14T10:50:43;4.87;;;4.50;;
6983;SDS011;3532;51.118;7.210;2023-05-14T10:53:12;5.80;;;5.13;;
6983;SDS011;3532;51.118;7.210;2023-05-14T10:55:37;4.87;;;4.47;;
6983;SDS011;3532;51.118;7.210;2023-05-14T10:58:03;4.77;;;4.37;;
6983;SDS011;3532;51.118;7.210;2023-05-14T11:00:28;4.63;;;4.23;;
6983;SDS011;3532;51.118;7.210;2023-05-14T11:02:58;5.30;;;4.73;;
6983;SDS011;3532;51.118;7.210;2023-05-14T11:05:23;4.40;;;4.00;;
6983;SDS011;3532;51.118;7.210;2023-05-14T11:07:51;5.23;;;4.73;;
6983;SDS011;3532;51.118;7.210;2023-05-14T11:10:19;7.23;;;4.53;;
6983;SDS011;3532;51.118;7.210;2023-05-14T11:12:46;4.37;;;4.00;;
6983;SDS011;3532;51.118;7.210;2023-05-14T11:15:19;4.27;;;3.30;;
6983;SDS011;3532;51.118;7.210;2023-05-14T11:17:46;4.53;;;3.33;;
6983;SDS011;3532;51.118;7.210;2023-05-14T11:20:13;3.83;;;3.53;;
6983;SDS011;3532;51.118;7.210;2023-05-14T11:22:39;3.37;;;3.10;;
6983;SDS011;3532;51.118;7.210;2023-05-14T11:25:05;3.40;;;3.07;;
6983;SDS011;3532;51.118;7.210;2023-05-14T11:27:35;5.07;;;2.77;;
6983;SDS011;3532;51.118;7.210;2023-05-14T11:30:01;2.93;;;2.73;;
6983;SDS011;3532;51.118;7.210;2023-05-14T11:32:28;2.80;;;2.60;;
6983;SDS011;3532;51.118;7.210;2023-05-14T11:34:53;3.47;;;3.03;;
6983;SDS011;3532;51.118;7.210;2023-05-14T11:37:19;4.97;;;3.47;;
6983;SDS011;3532;51.118;7.210;2023-05-14T11:39:48;3.20;;;2.87;;
6983;SDS011;3532;51.118;7.210;2023-05-14T11:42:15;3.33;;;3.03;;
6983;SDS011;3532;51.118;7.210;2023-05-14T11:44:42;5.43;;;2.97;;
6983;SDS011;3532;51.118;7.210;2023-05-14T11:47:09;3.10;;;2.83;;
6983;SDS011;3532;51.118;7.210;2023-05-14T11:49:34;3.33;;;2.70;;
6983;SDS011;3532;51.118;7.210;2023-05-14T11:52:02;3.17;;;2.87;;
6983;SDS011;3532;51.118;7.210;2023-05-14T11:54:31;2.90;;;2.70;;
6983;SDS011;3532;51.118;7.210;2023-05-14T11:56:58;3.90;;;3.10;;
6983;SDS011;3532;51.118;7.210;2023-05-14T11:59:28;3.53;;;2.93;;
6983;SDS011;3532;51.118;7.210;2023-05-14T12:01:55;3.30;;;2.90;;
6983;SDS011;3532;51.118;7.210;2023-05-14T12:04:21;4.70;;;2.73;;
6983;SDS011;3532;51.118;7.210;2023-05-14T12:06:56;4.67;;;3.23;;
6983;SDS011;3532;51.118;7.210;2023-05-14T12:09:23;4.73;;;2.73;;
6983;SDS011;3532;51.118;7.210;2023-05-14T12:11:49;2.83;;;2.63;;
6983;SDS011;3532;51.118;7.210;2023-05-14T12:14:15;4.57;;;2.80;;
6983;SDS011;3532;51.118;7.210;2023-05-14T12:16:45;3.40;;;2.80;;
6983;SDS011;3532;51.118;7.210;2023-05-14T12:19:11;2.90;;;2.70;;
6983;SDS011;3532;51.118;7.210;2023-05-14T12:21:39;5.53;;;2.83;;
6983;SDS011;3532;51.118;7.210;2023-05-14T12:24:08;6.43;;;3.00;;
6983;SDS011;3532;51.118;7.210;2023-05-14T12:26:36;4.30;;;3.03;;
6983;SDS011;3532;51.118;7.210;2023-05-14T12:29:05;3.83;;;3.43;;
6983;SDS011;3532;51.118;7.210;2023-05-14T12:31:33;4.20;;;3.13;;
6983;SDS011;3532;51.118;7.210;2023-05-14T12:33:59;3.57;;;3.27;;
6983;SDS011;3532;51.118;7.210;2023-05-14T12:36:24;4.80;;;3.20;;
6983;SDS011;3532;51.118;7.210;2023-05-14T12:38:50;5.10;;;3.03;;
6983;SDS011;3532;51.118;7.210;2023-05-14T12:41:22;5.03;;;2.83;;
6983;SDS011;3532;51.118;7.210;2023-05-14T12:43:47;3.87;;;3.37;;
6983;SDS011;3532;51.118;7.210;2023-05-14T12:46:13;4.87;;;2.80;;
6983;SDS011;3532;51.118;7.210;2023-05-14T12:48:39;3.37;;;3.07;;
6983;SDS011;3532;51.118;7.210;2023-05-14T12:51:04;6.93;;;2.90;;
6983;SDS011;3532;51.118;7.210;2023-05-14T12:53:30;4.03;;;2.90;;
6983;SDS011;3532;51.118;7.210;2023-05-14T12:55:55;2.50;;;2.30;;
6983;SDS011;3532;51.118;7.210;2023-05-14T12:58:20;3.27;;;2.97;;
6983;SDS011;3532;51.118;7.210;2023-05-14T13:00:46;3.03;;;2.67;;
6983;SDS011;3532;51.118;7.210;2023-05-14T13:03:11;3.07;;;2.60;;
6983;SDS011;3532;51.118;7.210;2023-05-14T13:05:36;3.10;;;2.80;;
6983;SDS011;3532;51.118;7.210;2023-05-14T13:08:01;3.43;;;2.83;;
6983;SDS011;3532;51.118;7.210;2023-05-14T13:10:27;4.13;;;2.73;;
6983;SDS011;3532;51.118;7.210;2023-05-14T13:12:53;3.93;;;2.97;;
6983;SDS011;3532;51.118;7.210;2023-05-14T13:15:20;4.17;;;2.70;;
6983;SDS011;3532;51.118;7.210;2023-05-14T13:17:45;3.73;;;2.60;;
6983;SDS011;3532;51.118;7.210;2023-05-14T13:20:11;3.20;;;2.60;;
6983;SDS011;3532;51.118;7.210;2023-05-14T13:22:36;2.87;;;2.30;;
6983;SDS011;3532;51.118;7.210;2023-05-14T13:25:01;3.23;;;2.30;;
6983;SDS011;3532;51.118;7.210;2023-05-14T13:27:27;3.07;;;2.80;;
6983;SDS011;3532;51.118;7.210;2023-05-14T13:29:54;4.23;;;2.70;;
6983;SDS011;3532;51.118;7.210;2023-05-14T13:32:19;4.43;;;3.10;;
6983;SDS011;3532;51.118;7.210;2023-05-14T13:34:44;5.23;;;2.50;;
6983;SDS011;3532;51.118;7.210;2023-05-14T13:37:10;2.93;;;2.30;;
6983;SDS011;3532;51.118;7.210;2023-05-14T13:39:35;3.83;;;2.97;;
6983;SDS011;3532;51.118;7.210;2023-05-14T13:42:00;2.60;;;2.40;;
6983;SDS011;3532;51.118;7.210;2023-05-14T13:44:26;2.70;;;2.40;;
6983;SDS011;3532;51.118;7.210;2023-05-14T13:46:51;2.57;;;2.37;;
6983;SDS011;3532;51.118;7.210;2023-05-14T13:49:17;2.70;;;2.50;;
6983;SDS011;3532;51.118;7.210;2023-05-14T13:51:42;2.50;;;2.30;;
6983;SDS011;3532;51.118;7.210;2023-05-14T13:54:08;2.60;;;2.40;;
6983;SDS011;3532;51.118;7.210;2023-05-14T13:56:33;3.13;;;2.83;;
6983;SDS011;3532;51.118;7.210;2023-05-14T13:58:58;5.83;;;2.60;;
6983;SDS011;3532;51.118;7.210;2023-05-14T14:01:24;2.63;;;2.40;;
6983;SDS011;3532;51.118;7.210;2023-05-14T14:03:49;3.33;;;2.87;;
6983;SDS011;3532;51.118;7.210;2023-05-14T14:06:14;3.47;;;2.70;;
6983;SDS011;3532;51.118;7.210;2023-05-14T14:08:40;3.40;;;2.47;;
6983;SDS011;3532;51.118;7.210;2023-05-14T14:11:05;2.90;;;2.40;;
6983;SDS011;3532;51.118;7.210;2023-05-14T14:13:31;2.27;;;2.07;;
6983;SDS011;3532;51.118;7.210;2023-05-14T14:15:56;2.80;;;2.60;;
6983;SDS011;3532;51.118;7.210;2023-05-14T14:18:21;3.00;;;2.80;;
6983;SDS011;3532;51.118;7.210;2023-05-14T14:20:47;2.50;;;2.30;;
6983;SDS011;3532;51.118;7.210;2023-05-14T14:23:12;2.83;;;2.60;;
6983;SDS011;3532;51.118;7.210;2023-05-14T14:25:37;1.90;;;1.80;;
6983;SDS011;3532;51.118;7.210;2023-05-14T14:28:03;2.03;;;1.93;;
6983;SDS011;3532;51.118;7.210;2023-05-14T14:30:28;2.40;;;2.20;;
6983;SDS011;3532;51.118;7.210;2023-05-14T14:32:53;3.10;;;2.70;;
6983;SDS011;3532;51.118;7.210;2023-05-14T14:35:19;2.40;;;2.27;;
6983;SDS011;3532;51.118;7.210;2023-05-14T14:37:44;2.47;;;2.27;;
6983;SDS011;3532;51.118;7.210;2023-05-14T14:40:13;4.70;;;2.03;;
6983;SDS011;3532;51.118;7.210;2023-05-14T14:42:39;2.43;;;2.23;;
6983;SDS011;3532;51.118;7.210;2023-05-14T14:45:05;2.20;;;2.00;;
6983;SDS011;3532;51.118;7.210;2023-05-14T14:47:31;2.43;;;2.23;;
6983;SDS011;3532;51.118;7.210;2023-05-14T14:49:56;3.20;;;2.20;;
6983;SDS011;3532;51.118;7.210;2023-05-14T14:52:22;3.33;;;2.03;;
6983;SDS011;3532;51.118;7.210;2023-05-14T14:54:48;2.40;;;2.20;;
6983;SDS011;3532;51.118;7.210;2023-05-14T14:57:14;3.77;;;2.40;;
6983;SDS011;3532;51.118;7.210;2023-05-14T14:59:39;2.73;;;1.87;;
6983;SDS011;3532;51.118;7.210;2023-05-14T15:02:05;2.30;;;2.10;;
6983;SDS011;3532;51.118;7.210;2023-05-14T15:04:31;2.10;;;2.00;;
6983;SDS011;3532;51.118;7.210;2023-05-14T15:06:58;2.30;;;2.10;;
6983;SDS011;3532;51.118;7.210;2023-05-14T15:09:24;2.20;;;2.00;;
6983;SDS011;3532;51.118;7.210;2023-05-14T15:11:49;2.77;;;2.20;;
6983;SDS011;3532;51.118;7.210;2023-05-14T15:14:14;3.37;;;1.90;;
6983;SDS011;3532;51.118;7.210;2023-05-14T15:16:40;2.00;;;1.90;;